createdAt,value
2023-07-17T00:00:13.150Z,60.00
2023-07-17T00:02:41.511Z,59.40
2023-07-17T00:05:09.351Z,59.60
2023-07-17T00:07:36.127Z,59.40
2023-07-17T00:10:05.277Z,59.70
2023-07-17T00:12:32.338Z,59.90
2023-07-17T00:14:59.216Z,60.10
2023-07-17T00:17:26.073Z,60.10
2023-07-17T00:19:56.759Z,59.90
2023-07-17T00:22:25.267Z,60.00
2023-07-17T00:24:53.173Z,60.40
2023-07-17T00:27:20.845Z,60.50
2023-07-17T00:29:47.854Z,60.60
2023-07-17T00:32:15.373Z,60.40
2023-07-17T00:34:42.629Z,60.30
2023-07-17T00:37:10.062Z,60.40
2023-07-17T00:39:37.100Z,60.50
2023-07-17T00:42:04.401Z,60.60
2023-07-17T00:44:31.565Z,60.90
2023-07-17T00:46:59.560Z,60.80
2023-07-17T00:49:29.065Z,61.10
2023-07-17T00:51:57.499Z,61.60
2023-07-17T00:54:25.213Z,62.00
2023-07-17T00:56:53.634Z,62.80
2023-07-17T00:59:21.057Z,63.00
2023-07-17T01:01:48.625Z,0.00
2023-07-17T01:04:15.566Z,63.10
2023-07-17T01:06:42.941Z,63.30
2023-07-17T01:09:12.624Z,63.40
2023-07-17T01:11:39.752Z,63.40
2023-07-17T01:14:06.655Z,63.90
2023-07-17T01:16:33.584Z,63.70
2023-07-17T01:19:00.418Z,63.90
2023-07-17T01:21:30.460Z,63.80
2023-07-17T01:23:58.035Z,64.10
2023-07-17T01:26:25.220Z,64.10
2023-07-17T01:28:52.223Z,63.90
2023-07-17T01:31:20.172Z,63.30
2023-07-17T01:33:47.414Z,63.90
2023-07-17T01:36:16.342Z,63.60
2023-07-17T01:38:43.118Z,64.00
2023-07-17T01:41:09.860Z,64.20
2023-07-17T01:43:36.670Z,64.00
2023-07-17T01:46:03.677Z,64.00
2023-07-17T01:48:30.605Z,64.30
2023-07-17T01:50:57.425Z,64.00
2023-07-17T01:53:24.466Z,64.40
2023-07-17T01:55:51.391Z,64.80
2023-07-17T01:58:18.179Z,64.40
2023-07-17T02:00:45.053Z,64.90
2023-07-17T02:03:11.849Z,65.10
2023-07-17T02:05:38.649Z,65.50
2023-07-17T02:08:07.595Z,65.60
2023-07-17T02:10:34.689Z,65.70
2023-07-17T02:13:01.617Z,65.50
2023-07-17T02:15:28.483Z,65.40
2023-07-17T02:17:55.371Z,65.40
2023-07-17T02:20:22.163Z,65.40
2023-07-17T02:22:49.022Z,65.30
2023-07-17T02:25:15.924Z,65.40
2023-07-17T02:27:42.726Z,65.60
2023-07-17T02:30:10.145Z,65.80
2023-07-17T02:32:38.350Z,66.00
2023-07-17T02:35:06.144Z,66.00
2023-07-17T02:37:33.148Z,66.50
2023-07-17T02:39:59.995Z,66.40
2023-07-17T02:42:26.806Z,67.00
2023-07-17T02:44:53.598Z,67.00
2023-07-17T02:47:20.437Z,67.30
2023-07-17T02:49:47.295Z,67.40
2023-07-17T02:52:14.121Z,67.90
2023-07-17T02:54:41.039Z,68.20
2023-07-17T02:57:08.065Z,0.00
2023-07-17T02:59:34.881Z,68.70
2023-07-17T03:02:01.804Z,69.00
2023-07-17T03:04:28.726Z,69.00
2023-07-17T03:06:55.567Z,69.00
2023-07-17T03:09:22.479Z,68.90
2023-07-17T03:11:49.905Z,68.80
2023-07-17T03:14:16.696Z,68.70
2023-07-17T03:16:43.532Z,68.60
2023-07-17T03:19:11.100Z,68.50
2023-07-17T03:21:38.053Z,68.50
2023-07-17T03:24:06.224Z,0.00
2023-07-17T03:26:33.053Z,68.50
2023-07-17T03:29:00.054Z,68.30
2023-07-17T03:31:26.944Z,68.50
2023-07-17T03:33:53.786Z,68.40
2023-07-17T03:36:20.628Z,68.40
2023-07-17T03:38:47.436Z,68.00
2023-07-17T03:41:14.516Z,68.50
2023-07-17T03:43:41.331Z,68.10
2023-07-17T03:46:08.376Z,67.90
2023-07-17T03:48:35.194Z,67.40
2023-07-17T03:51:03.521Z,67.60
2023-07-17T03:53:30.582Z,67.60
2023-07-17T03:55:57.443Z,67.90
2023-07-17T03:58:24.877Z,68.00
2023-07-17T04:00:51.832Z,67.90
2023-07-17T04:03:18.779Z,67.80
2023-07-17T04:05:46.109Z,68.10
2023-07-17T04:08:12.924Z,68.20
2023-07-17T04:10:39.804Z,67.50
2023-07-17T04:13:06.774Z,67.70
2023-07-17T04:15:36.944Z,67.60
2023-07-17T04:18:03.901Z,67.80
2023-07-17T04:20:30.740Z,68.00
2023-07-17T04:22:57.507Z,68.30
2023-07-17T04:25:24.385Z,68.30
2023-07-17T04:27:51.449Z,68.20
2023-07-17T04:30:18.382Z,68.50
2023-07-17T04:32:45.270Z,68.60
2023-07-17T04:35:12.209Z,68.30
2023-07-17T04:37:39.068Z,68.60
2023-07-17T04:40:06.693Z,68.70
2023-07-17T04:42:33.502Z,69.40
2023-07-17T04:45:00.350Z,69.80
2023-07-17T04:47:27.213Z,69.80
2023-07-17T04:49:54.826Z,70.00
2023-07-17T04:52:21.606Z,70.10
2023-07-17T04:54:48.487Z,69.40
2023-07-17T04:57:15.419Z,69.20
2023-07-17T04:59:42.251Z,69.40
2023-07-17T05:02:09.083Z,69.50
2023-07-17T05:04:35.864Z,69.50
2023-07-17T05:07:02.788Z,69.00
2023-07-17T05:09:29.634Z,68.80
2023-07-17T05:11:56.764Z,68.40
2023-07-17T05:14:23.660Z,67.80
2023-07-17T05:16:50.533Z,67.90
2023-07-17T05:19:17.433Z,67.90
2023-07-17T05:21:44.293Z,67.80
2023-07-17T05:24:11.350Z,68.00
2023-07-17T05:26:38.158Z,67.90
2023-07-17T05:29:05.918Z,67.60
2023-07-17T05:31:32.852Z,67.10
2023-07-17T05:33:59.785Z,66.80
2023-07-17T05:36:26.604Z,66.20
2023-07-17T05:38:53.407Z,65.90
2023-07-17T05:41:20.368Z,66.00
2023-07-17T05:43:47.426Z,66.60
2023-07-17T05:46:14.399Z,66.60
2023-07-17T05:48:41.224Z,67.20
2023-07-17T05:51:10.011Z,67.20
2023-07-17T05:53:37.174Z,67.20
2023-07-17T05:56:04.244Z,66.80
2023-07-17T05:58:31.260Z,66.80
2023-07-17T06:00:58.044Z,66.70
2023-07-17T06:03:25.223Z,66.40
2023-07-17T06:05:52.772Z,66.60
2023-07-17T06:08:19.592Z,66.60
2023-07-17T06:10:47.455Z,66.70
2023-07-17T06:13:16.216Z,66.60
2023-07-17T06:15:44.940Z,66.60
2023-07-17T06:18:11.801Z,67.10
2023-07-17T06:20:38.965Z,66.90
2023-07-17T06:23:05.839Z,66.90
2023-07-17T06:25:32.664Z,66.90
2023-07-17T06:27:59.443Z,67.10
2023-07-17T06:30:26.309Z,66.20
2023-07-17T06:32:53.148Z,66.40
2023-07-17T06:35:20.106Z,66.40
2023-07-17T06:37:47.004Z,64.30
2023-07-17T06:40:14.451Z,63.20
2023-07-17T06:42:41.520Z,63.80
2023-07-17T06:45:09.065Z,64.90
2023-07-17T06:47:37.761Z,65.40
2023-07-17T06:50:05.925Z,65.90
2023-07-17T06:52:33.035Z,65.20
2023-07-17T06:57:29.607Z,65.80
2023-07-17T06:59:56.427Z,65.60
2023-07-17T07:02:23.245Z,65.60
2023-07-17T07:04:50.120Z,65.60
2023-07-17T07:07:18.732Z,65.40
2023-07-17T07:09:46.496Z,65.40
2023-07-17T07:12:13.436Z,65.70
2023-07-17T07:14:40.299Z,65.90
2023-07-17T07:17:07.172Z,65.70
2023-07-17T07:19:35.158Z,64.70
2023-07-17T07:22:02.010Z,64.80
2023-07-17T07:24:28.806Z,64.40
2023-07-17T07:26:55.712Z,0.00
2023-07-17T07:29:22.542Z,64.10
2023-07-17T07:31:49.377Z,64.10
2023-07-17T07:34:16.392Z,64.00
2023-07-17T07:36:43.266Z,63.90
2023-07-17T07:39:10.078Z,63.80
2023-07-17T07:41:37.712Z,63.70
2023-07-17T07:44:05.398Z,63.70
2023-07-17T07:46:32.501Z,63.50
2023-07-17T07:48:59.470Z,63.20
2023-07-17T07:51:26.308Z,63.20
2023-07-17T07:53:53.210Z,63.40
2023-07-17T07:56:20.350Z,63.70
2023-07-17T07:58:47.413Z,63.40
2023-07-17T08:01:14.246Z,63.80
2023-07-17T08:03:41.754Z,63.90
2023-07-17T08:06:08.757Z,63.80
2023-07-17T08:08:35.692Z,63.50
2023-07-17T08:11:05.268Z,63.10
2023-07-17T08:13:32.350Z,62.80
2023-07-17T08:15:59.360Z,62.50
2023-07-17T08:18:26.239Z,62.50
2023-07-17T08:20:55.329Z,62.70
2023-07-17T08:23:28.326Z,62.60
2023-07-17T08:25:55.699Z,62.20
2023-07-17T08:28:22.715Z,62.00
2023-07-17T08:30:53.335Z,61.60
2023-07-17T08:33:21.324Z,61.40
2023-07-17T08:35:48.492Z,62.00
2023-07-17T08:38:15.520Z,61.70
2023-07-17T08:40:42.740Z,61.90
2023-07-17T08:43:09.920Z,62.20
2023-07-17T08:45:37.557Z,62.00
2023-07-17T08:48:05.351Z,61.70
2023-07-17T08:50:33.379Z,61.60
2023-07-17T08:53:00.306Z,61.50
2023-07-17T08:55:33.436Z,61.70
2023-07-17T08:58:04.314Z,61.50
2023-07-17T09:00:32.387Z,61.50
2023-07-17T09:02:59.744Z,61.40
2023-07-17T09:05:26.787Z,61.60
2023-07-17T09:07:53.639Z,61.50
2023-07-17T09:10:24.805Z,60.90
2023-07-17T09:13:00.921Z,60.70
2023-07-17T09:15:29.438Z,60.70
2023-07-17T09:17:56.892Z,60.70
2023-07-17T09:20:23.807Z,60.70
2023-07-17T09:22:51.461Z,60.40
2023-07-17T09:25:18.408Z,60.20
2023-07-17T09:27:50.299Z,60.40
2023-07-17T09:30:20.782Z,60.10
2023-07-17T09:32:49.374Z,59.80
2023-07-17T09:35:19.371Z,59.30
2023-07-17T09:37:47.024Z,59.50
2023-07-17T09:40:17.988Z,59.50
2023-07-17T09:42:47.381Z,59.90
2023-07-17T09:45:16.222Z,59.30
2023-07-17T09:47:43.864Z,59.20
2023-07-17T09:50:10.786Z,59.20
2023-07-17T09:52:37.783Z,59.00
2023-07-17T09:55:05.008Z,58.40
2023-07-17T09:57:35.168Z,58.40
2023-07-17T10:00:18.649Z,58.40
2023-07-17T10:02:55.077Z,59.00
2023-07-17T10:05:22.147Z,58.70
2023-07-17T10:07:51.737Z,57.50
2023-07-17T10:10:19.281Z,54.20
2023-07-17T10:12:46.714Z,53.30
2023-07-17T10:15:16.113Z,52.10
2023-07-17T10:17:43.323Z,51.30
2023-07-17T10:20:13.521Z,49.90
2023-07-17T10:22:47.354Z,49.30
2023-07-17T10:25:20.315Z,49.00
2023-07-17T10:28:02.106Z,49.20
2023-07-17T10:30:38.906Z,49.40
2023-07-17T10:33:20.434Z,48.40
2023-07-17T10:35:56.292Z,49.00
2023-07-17T10:38:28.169Z,49.00
2023-07-17T10:41:26.063Z,49.40
2023-07-17T10:44:17.139Z,48.70
2023-07-17T10:46:45.388Z,49.00
2023-07-17T10:49:13.880Z,48.80
2023-07-17T10:51:45.756Z,48.50
2023-07-17T10:54:13.341Z,49.20
2023-07-17T10:56:40.222Z,49.10
2023-07-17T10:59:07.067Z,49.70
2023-07-17T11:01:34.119Z,49.50
2023-07-17T11:04:01.374Z,49.90
2023-07-17T11:06:29.072Z,50.40
2023-07-17T11:08:56.094Z,50.10
2023-07-17T11:11:23.874Z,49.70
2023-07-17T11:13:53.722Z,50.00
2023-07-17T11:16:22.902Z,50.50
2023-07-17T11:18:57.290Z,48.20
2023-07-17T11:21:26.644Z,48.30
2023-07-17T11:23:54.676Z,48.00
2023-07-17T11:26:26.769Z,46.50
2023-07-17T11:28:54.734Z,46.30
2023-07-17T11:31:24.281Z,46.70
2023-07-17T11:34:05.792Z,46.50
2023-07-17T11:36:46.632Z,46.90
2023-07-17T11:39:19.221Z,47.20
2023-07-17T11:41:50.670Z,46.30
2023-07-17T11:44:31.286Z,46.60
2023-07-17T11:47:04.595Z,47.10
2023-07-17T11:49:32.135Z,47.20
2023-07-17T11:51:58.947Z,47.10
2023-07-17T11:54:38.119Z,0.00
2023-07-17T11:57:05.249Z,46.70
2023-07-17T11:59:32.425Z,46.20
2023-07-17T12:01:59.613Z,46.20
2023-07-17T12:04:33.938Z,46.00
2023-07-17T12:07:03.066Z,45.60
2023-07-17T12:09:30.362Z,46.40
2023-07-17T12:11:57.854Z,46.80
2023-07-17T12:14:24.686Z,47.00
2023-07-17T12:16:51.571Z,47.40
2023-07-17T12:19:19.612Z,46.40
2023-07-17T12:21:46.762Z,46.60
2023-07-17T12:24:16.228Z,45.90
2023-07-17T12:26:43.675Z,46.10
2023-07-17T12:29:11.116Z,46.20
2023-07-17T12:31:38.669Z,46.10
2023-07-17T12:34:05.913Z,45.70
2023-07-17T12:36:32.750Z,45.50
2023-07-17T12:39:13.073Z,44.90
2023-07-17T12:41:40.065Z,45.10
2023-07-17T12:44:06.982Z,45.60
2023-07-17T12:46:33.965Z,45.20
2023-07-17T12:49:00.922Z,45.10
2023-07-17T12:51:27.849Z,45.00
2023-07-17T12:53:54.650Z,45.00
2023-07-17T12:56:22.606Z,45.50
2023-07-17T12:58:52.407Z,45.50
2023-07-17T13:01:19.742Z,45.60
2023-07-17T13:03:47.079Z,45.40
2023-07-17T13:06:14.176Z,45.10
2023-07-17T13:08:41.622Z,45.10
2023-07-17T13:11:08.530Z,44.80
2023-07-17T13:13:35.341Z,44.80
2023-07-17T13:16:02.170Z,45.10
2023-07-17T13:18:28.990Z,44.40
2023-07-17T13:20:55.903Z,44.40
2023-07-17T13:23:22.696Z,44.10
2023-07-17T13:25:49.443Z,43.90
2023-07-17T13:28:16.256Z,0.00
2023-07-17T13:30:55.644Z,43.70
2023-07-17T13:33:30.617Z,43.10
2023-07-17T13:35:58.022Z,43.00
2023-07-17T13:38:25.451Z,43.00
2023-07-17T13:40:52.280Z,42.70
2023-07-17T13:43:19.136Z,43.00
2023-07-17T13:45:46.012Z,43.10
2023-07-17T13:48:12.846Z,0.00
2023-07-17T13:50:39.766Z,42.60
2023-07-17T13:53:06.660Z,42.50
2023-07-17T13:55:33.485Z,42.80
2023-07-17T13:58:00.221Z,42.80
2023-07-17T14:00:29.025Z,42.80
2023-07-17T14:02:56.114Z,42.50
2023-07-17T14:05:23.081Z,42.20
2023-07-17T14:07:49.944Z,41.90
2023-07-17T14:10:16.944Z,41.50
2023-07-17T14:12:43.820Z,41.20
2023-07-17T14:15:10.783Z,41.40
2023-07-17T14:17:37.710Z,41.30
2023-07-17T14:20:05.009Z,40.20
2023-07-17T14:22:31.859Z,41.30
2023-07-17T14:24:58.788Z,41.30
2023-07-17T14:27:25.546Z,40.60
2023-07-17T14:29:52.366Z,41.30
2023-07-17T14:32:19.185Z,41.80
2023-07-17T14:34:46.018Z,41.50
2023-07-17T14:37:12.866Z,40.90
2023-07-17T14:39:39.690Z,40.50
2023-07-17T14:42:06.734Z,40.50
2023-07-17T14:44:33.674Z,40.90
2023-07-17T14:47:00.780Z,40.70
2023-07-17T14:49:27.799Z,40.70
2023-07-17T14:51:54.697Z,40.40
2023-07-17T14:54:21.598Z,40.30
2023-07-17T14:56:48.421Z,39.80
2023-07-17T14:59:15.267Z,39.00
2023-07-17T15:01:42.296Z,39.00
2023-07-17T15:04:09.340Z,41.10
2023-07-17T15:06:37.273Z,41.40
2023-07-17T15:09:04.141Z,41.40
2023-07-17T15:11:31.031Z,41.60
2023-07-17T15:13:58.537Z,41.50
2023-07-17T15:16:27.496Z,40.90
2023-07-17T15:18:54.281Z,40.80
2023-07-17T15:21:21.065Z,41.50
2023-07-17T15:23:47.989Z,41.10
2023-07-17T15:26:14.846Z,40.90
2023-07-17T15:28:41.921Z,40.70
2023-07-17T15:31:13.149Z,41.00
2023-07-17T15:33:40.416Z,41.10
2023-07-17T15:36:07.597Z,40.60
2023-07-17T15:38:34.502Z,40.90
2023-07-17T15:41:01.918Z,40.70
2023-07-17T15:43:28.895Z,41.10
2023-07-17T15:45:55.760Z,40.80
2023-07-17T15:48:22.548Z,40.90
2023-07-17T15:50:49.644Z,41.30
2023-07-17T15:53:16.593Z,40.80
2023-07-17T15:55:43.421Z,41.10
2023-07-17T15:58:10.310Z,41.50
2023-07-17T16:00:37.090Z,41.40
2023-07-17T16:03:04.290Z,41.80
2023-07-17T16:05:31.348Z,41.90
2023-07-17T16:07:58.288Z,41.40
2023-07-17T16:10:25.172Z,40.80
2023-07-17T16:12:52.984Z,0.00
2023-07-17T16:15:19.814Z,41.50
2023-07-17T16:17:47.927Z,41.20
2023-07-17T16:20:14.749Z,41.40
2023-07-17T16:22:41.654Z,41.20
2023-07-17T16:25:08.705Z,41.50
2023-07-17T16:27:35.560Z,41.70
2023-07-17T16:30:02.484Z,41.30
2023-07-17T16:32:29.296Z,42.20
2023-07-17T16:34:56.106Z,41.90
2023-07-17T16:37:22.987Z,42.10
2023-07-17T16:39:49.836Z,41.90
2023-07-17T16:42:16.650Z,42.70
2023-07-17T16:44:43.467Z,42.40
2023-07-17T16:47:10.385Z,42.50
2023-07-17T16:49:37.209Z,42.60
2023-07-17T16:52:04.535Z,43.00
2023-07-17T16:54:31.458Z,42.60
2023-07-17T16:56:58.298Z,41.10
2023-07-17T16:59:26.639Z,41.40
2023-07-17T17:01:53.537Z,41.30
2023-07-17T17:04:20.541Z,41.80
2023-07-17T17:06:47.418Z,41.70
2023-07-17T17:09:16.519Z,42.40
2023-07-17T17:11:44.459Z,42.50
2023-07-17T17:14:11.442Z,42.90
2023-07-17T17:16:38.473Z,43.10
2023-07-17T17:19:05.419Z,43.50
2023-07-17T17:21:33.411Z,43.50
2023-07-17T17:24:01.076Z,43.70
2023-07-17T17:26:28.267Z,43.40
2023-07-17T17:28:55.231Z,43.10
2023-07-17T17:31:22.756Z,43.20
2023-07-17T17:33:49.874Z,44.00
2023-07-17T17:36:17.750Z,43.50
2023-07-17T17:38:44.785Z,43.40
2023-07-17T17:41:12.064Z,43.80
2023-07-17T17:43:38.874Z,43.90
2023-07-17T17:46:05.788Z,44.50
2023-07-17T17:48:32.661Z,45.00
2023-07-17T17:50:59.594Z,44.30
2023-07-17T17:53:26.817Z,44.60
2023-07-17T17:55:53.629Z,45.00
2023-07-17T17:58:20.791Z,45.30
2023-07-17T18:00:47.799Z,44.30
2023-07-17T18:03:14.726Z,44.20
2023-07-17T18:05:41.986Z,44.40
2023-07-17T18:08:09.748Z,44.80
2023-07-17T18:10:36.756Z,45.50
2023-07-17T18:13:03.584Z,45.60
2023-07-17T18:15:30.449Z,45.40
2023-07-17T18:17:58.319Z,45.80
2023-07-17T18:20:25.397Z,46.30
2023-07-17T18:22:52.348Z,46.30
2023-07-17T18:25:19.110Z,47.30
2023-07-17T18:27:46.010Z,47.40
2023-07-17T18:30:13.669Z,47.60
2023-07-17T18:32:40.535Z,47.20
2023-07-17T18:35:08.163Z,47.70
2023-07-17T18:37:35.803Z,48.10
2023-07-17T18:40:05.441Z,48.40
2023-07-17T18:42:32.257Z,48.70
2023-07-17T18:44:59.123Z,49.00
2023-07-17T18:47:25.984Z,49.30
2023-07-17T18:49:52.900Z,49.80
2023-07-17T18:52:19.812Z,49.90
2023-07-17T18:54:46.601Z,50.20
2023-07-17T18:57:13.401Z,50.20
2023-07-17T18:59:40.219Z,50.40
2023-07-17T19:02:07.017Z,50.80
2023-07-17T19:04:37.346Z,50.90
2023-07-17T19:07:04.456Z,0.00
2023-07-17T19:09:31.317Z,51.50
2023-07-17T19:11:59.973Z,51.60
2023-07-17T19:14:30.963Z,51.30
2023-07-17T19:17:02.131Z,51.10
2023-07-17T19:19:30.726Z,51.10
2023-07-17T19:21:57.541Z,51.30
2023-07-17T19:24:24.586Z,51.80
2023-07-17T19:26:51.409Z,51.90
2023-07-17T19:29:18.294Z,51.90
2023-07-17T19:31:45.200Z,51.80
2023-07-17T19:34:12.062Z,51.90
2023-07-17T19:36:39.316Z,51.90
2023-07-17T19:39:06.066Z,52.30
2023-07-17T19:41:32.860Z,52.30
2023-07-17T19:44:00.005Z,52.40
2023-07-17T19:46:27.250Z,52.20
2023-07-17T19:48:54.282Z,52.60
2023-07-17T19:51:21.887Z,52.50
2023-07-17T19:53:49.477Z,52.10
2023-07-17T19:56:16.344Z,52.00
2023-07-17T19:58:43.143Z,52.10
2023-07-17T20:01:10.052Z,52.00
2023-07-17T20:03:37.019Z,52.00
2023-07-17T20:06:04.057Z,51.60
2023-07-17T20:08:30.842Z,51.80
2023-07-17T20:10:58.840Z,51.80
2023-07-17T20:13:25.975Z,52.10
2023-07-17T20:15:53.010Z,52.20
2023-07-17T20:18:19.850Z,52.90
2023-07-17T20:20:46.892Z,53.00
2023-07-17T20:23:14.046Z,53.10
2023-07-17T20:25:41.090Z,53.00
2023-07-17T20:28:08.826Z,53.00
2023-07-17T20:30:36.399Z,53.00
2023-07-17T20:33:03.253Z,52.60
2023-07-17T20:35:30.163Z,52.10
2023-07-17T20:37:59.252Z,52.30
2023-07-17T20:40:27.725Z,52.40
2023-07-17T20:42:55.373Z,52.80
2023-07-17T20:45:46.451Z,53.20
2023-07-17T20:48:13.492Z,53.40
2023-07-17T20:50:40.451Z,53.70
2023-07-17T20:53:07.262Z,53.70
2023-07-17T20:55:34.093Z,53.60
2023-07-17T20:58:00.937Z,54.00
2023-07-17T21:00:27.912Z,54.20
2023-07-17T21:02:54.806Z,54.20
2023-07-17T21:05:28.835Z,54.30
2023-07-17T21:07:55.652Z,54.60
2023-07-17T21:10:22.414Z,55.30
2023-07-17T21:12:51.433Z,55.40
2023-07-17T21:15:18.422Z,55.40
2023-07-17T21:17:45.241Z,55.60
2023-07-17T21:20:13.969Z,55.60
2023-07-17T21:22:41.242Z,55.40
2023-07-17T21:25:08.409Z,55.80
2023-07-17T21:27:35.252Z,55.60
2023-07-17T21:30:05.813Z,55.90
2023-07-17T21:32:32.782Z,55.80
2023-07-17T21:34:59.599Z,55.90
2023-07-17T21:37:26.398Z,56.10
2023-07-17T21:39:53.566Z,56.10
2023-07-17T21:42:20.405Z,56.00
2023-07-17T21:44:47.168Z,55.90
2023-07-17T21:47:13.994Z,56.10
2023-07-17T21:49:40.766Z,56.00
2023-07-17T21:52:07.922Z,56.30
2023-07-17T21:54:36.244Z,56.50
2023-07-17T21:57:03.306Z,56.50
2023-07-17T21:59:30.102Z,56.40
2023-07-17T22:01:56.920Z,56.00
2023-07-17T22:04:23.703Z,56.30
2023-07-17T22:06:50.512Z,56.40
2023-07-17T22:09:17.546Z,56.50
2023-07-17T22:11:44.334Z,56.50
2023-07-17T22:14:11.254Z,56.70
2023-07-17T22:16:38.104Z,56.60
2023-07-17T22:19:05.027Z,56.60
2023-07-17T22:21:32.216Z,56.40
2023-07-17T22:23:58.991Z,56.20
2023-07-17T22:26:25.826Z,56.30
2023-07-17T22:28:52.561Z,56.10
2023-07-17T22:31:19.740Z,56.00
2023-07-17T22:33:47.691Z,55.50
2023-07-17T22:36:14.524Z,55.80
2023-07-17T22:38:41.316Z,55.80
2023-07-17T22:41:08.139Z,55.90
2023-07-17T22:43:35.004Z,56.00
2023-07-17T22:46:01.945Z,55.80
2023-07-17T22:48:29.259Z,55.50
2023-07-17T22:50:56.788Z,55.30
2023-07-17T22:53:24.081Z,55.30
2023-07-17T22:55:51.520Z,55.60
2023-07-17T22:58:18.345Z,55.40
2023-07-17T23:00:45.510Z,55.50
2023-07-17T23:03:12.739Z,55.40
2023-07-17T23:05:39.706Z,55.30
2023-07-17T23:08:08.469Z,55.10
2023-07-17T23:10:35.524Z,55.40
2023-07-17T23:13:02.352Z,55.50
2023-07-17T23:15:29.166Z,55.50
2023-07-17T23:17:56.019Z,55.50
2023-07-17T23:20:22.848Z,55.80
2023-07-17T23:22:50.780Z,55.90
2023-07-17T23:25:19.056Z,55.90
2023-07-17T23:27:45.908Z,55.50
2023-07-17T23:30:13.660Z,54.00
2023-07-17T23:32:41.110Z,52.80
2023-07-17T23:35:08.517Z,50.40
2023-07-17T23:37:35.472Z,50.00
2023-07-17T23:40:04.525Z,49.50
2023-07-17T23:42:31.836Z,49.30
2023-07-17T23:45:02.552Z,49.20
2023-07-17T23:47:29.540Z,49.40
2023-07-17T23:49:56.559Z,49.30
2023-07-17T23:52:23.487Z,49.10
2023-07-17T23:54:50.529Z,48.30
2023-07-17T23:57:17.983Z,48.10
2023-07-17T23:59:45.378Z,48.40
